createdAt,value
2022-11-01T00:00:44.503Z,101152.75
2022-11-01T00:05:46.491Z,101133.25
2022-11-01T00:10:49.409Z,101157.25
2022-11-01T00:15:51.396Z,101170.63
2022-11-01T00:20:53.766Z,101177.69
2022-11-01T00:26:00.533Z,101168.97
2022-11-01T00:31:02.357Z,101160.22
2022-11-01T00:36:04.237Z,101146.94
2022-11-01T00:41:08.312Z,101135.50
2022-11-01T00:46:10.571Z,101116.13
2022-11-01T00:51:12.874Z,101090.13
2022-11-01T00:56:16.462Z,101086.53
2022-11-01T01:01:18.560Z,101083.91
2022-11-01T01:06:20.738Z,101099.88
2022-11-01T01:11:23.716Z,101108.81
2022-11-01T01:16:25.723Z,101134.75
2022-11-01T01:21:28.109Z,101137.50
2022-11-01T01:26:31.680Z,101112.97
2022-11-01T01:31:33.592Z,101091.78
2022-11-01T01:36:35.433Z,101090.88
2022-11-01T01:41:38.549Z,101084.75
2022-11-01T01:46:40.187Z,101063.44
2022-11-01T01:51:42.312Z,101068.84
2022-11-01T01:56:45.835Z,101066.19
2022-11-01T02:01:48.031Z,101051.19
2022-11-01T02:06:50.284Z,101039.47
2022-11-01T02:11:54.038Z,101034.84
2022-11-01T02:17:05.584Z,101021.66
2022-11-01T02:22:16.860Z,101010.16
2022-11-01T02:27:28.981Z,101012.81
2022-11-01T02:32:39.179Z,101006.63
2022-11-01T02:37:48.747Z,101007.50
2022-11-01T02:42:56.401Z,101009.50
2022-11-01T02:48:01.720Z,101020.19
2022-11-01T02:53:04.614Z,101030.94
2022-11-01T02:58:15.347Z,101031.13
2022-11-01T03:03:22.827Z,101028.66
2022-11-01T03:08:28.410Z,101033.25
2022-11-01T03:13:44.070Z,101027.97
2022-11-01T03:18:56.508Z,101028.91
2022-11-01T03:24:04.629Z,101022.81
2022-11-01T03:29:10.287Z,101019.38
2022-11-01T03:34:16.319Z,101014.94
2022-11-01T03:39:22.894Z,101000.81
2022-11-01T03:44:27.127Z,100992.84
2022-11-01T03:49:30.570Z,100990.97
2022-11-01T03:54:32.270Z,100993.53
2022-11-01T03:59:34.290Z,100995.34
2022-11-01T04:04:37.619Z,101001.50
2022-11-01T04:09:39.575Z,101013.84
2022-11-01T04:14:41.574Z,101013.75
2022-11-01T04:19:44.771Z,101011.06
2022-11-01T04:24:46.935Z,101003.88
2022-11-01T04:29:50.382Z,101008.22
2022-11-01T04:34:54.044Z,101007.28
2022-11-01T04:39:56.095Z,101008.19
2022-11-01T04:44:58.105Z,101001.91
2022-11-01T04:50:01.932Z,100992.13
2022-11-01T04:55:04.485Z,100962.16
2022-11-01T05:00:08.049Z,100964.69
2022-11-01T05:05:11.833Z,100948.66
2022-11-01T05:10:13.880Z,100955.81
2022-11-01T05:15:16.070Z,100948.78
2022-11-01T05:20:19.167Z,100960.34
2022-11-01T05:25:20.945Z,100948.00
2022-11-01T05:30:23.193Z,100972.75
2022-11-01T05:35:27.842Z,100975.31
2022-11-01T05:40:30.538Z,100977.97
2022-11-01T05:45:32.565Z,100993.91
2022-11-01T05:50:36.065Z,100976.16
2022-11-01T05:55:38.652Z,100973.44
2022-11-01T06:00:40.945Z,100984.09
2022-11-01T06:05:44.316Z,100980.53
2022-11-01T06:10:46.486Z,100957.50
2022-11-01T06:15:48.495Z,100969.91
2022-11-01T06:20:52.230Z,100978.78
2022-11-01T06:26:00.493Z,100986.72
2022-11-01T06:36:12.309Z,100988.44
2022-11-01T06:41:14.267Z,100971.53
2022-11-01T06:46:16.126Z,100969.75
2022-11-01T06:51:19.572Z,100970.66
2022-11-01T06:56:21.529Z,100989.16
2022-11-01T07:01:23.643Z,100995.34
2022-11-01T07:06:27.231Z,100991.75
2022-11-01T07:11:31.756Z,101022.81
2022-11-01T07:16:34.162Z,101022.69
2022-11-01T07:21:38.218Z,101037.72
2022-11-01T07:26:40.237Z,101040.31
2022-11-01T07:31:41.927Z,101046.50
2022-11-01T07:36:45.569Z,101048.28
2022-11-01T07:41:47.636Z,101065.06
2022-11-01T07:46:49.672Z,101054.19
2022-11-01T07:51:53.006Z,101066.56
2022-11-01T07:56:55.118Z,101068.22
2022-11-01T08:01:57.123Z,101077.06
2022-11-01T08:07:00.795Z,101063.63
2022-11-01T08:12:02.743Z,101060.41
2022-11-01T08:17:04.687Z,101076.34
2022-11-01T08:22:08.132Z,101072.50
2022-11-01T08:27:09.732Z,101072.19
2022-11-01T08:32:11.389Z,101062.06
2022-11-01T08:37:15.287Z,101077.25
2022-11-01T08:42:17.508Z,101068.63
2022-11-01T08:47:19.203Z,101071.09
2022-11-01T08:52:22.200Z,101067.13
2022-11-01T08:57:24.516Z,101079.28
2022-11-01T09:02:26.823Z,101067.81
2022-11-01T09:07:30.031Z,101064.91
2022-11-01T09:12:32.061Z,101052.06
2022-11-01T09:17:33.992Z,101057.69
2022-11-01T09:22:37.531Z,101075.41
2022-11-01T09:27:39.743Z,101095.47
2022-11-01T09:32:41.440Z,101099.97
2022-11-01T09:37:44.828Z,101098.81
2022-11-01T09:42:48.574Z,101118.66
2022-11-01T09:47:53.988Z,101127.50
2022-11-01T09:52:58.077Z,101109.22
2022-11-01T09:58:07.318Z,101112.19
2022-11-01T10:03:29.943Z,101087.66
2022-11-01T10:08:45.718Z,101078.34
2022-11-01T10:13:58.423Z,101084.13
2022-11-01T10:19:04.420Z,101128.59
2022-11-01T10:24:17.979Z,101123.41
2022-11-01T10:29:25.121Z,101136.19
2022-11-01T10:34:35.992Z,101135.81
2022-11-01T10:39:54.932Z,101132.78
2022-11-01T10:45:06.096Z,101109.31
2022-11-01T10:50:16.889Z,101104.16
2022-11-01T10:55:27.052Z,101117.66
2022-11-01T11:00:31.044Z,101122.50
2022-11-01T11:05:33.458Z,101136.00
2022-11-01T11:10:37.245Z,101153.44
2022-11-01T11:15:44.498Z,101151.34
2022-11-01T11:20:51.141Z,101160.53
2022-11-01T11:26:01.538Z,101160.09
2022-11-01T11:31:14.436Z,101158.38
2022-11-01T11:36:16.715Z,101148.00
2022-11-01T11:41:31.832Z,101144.63
2022-11-01T11:46:34.782Z,101148.31
2022-11-01T11:51:38.346Z,101157.31
2022-11-01T11:56:42.001Z,101167.31
2022-11-01T12:01:46.224Z,101164.78
2022-11-01T12:06:48.154Z,101167.31
2022-11-01T12:11:51.777Z,101161.06
2022-11-01T12:16:53.854Z,101158.84
2022-11-01T12:21:59.352Z,101166.25
2022-11-01T12:27:07.654Z,101170.97
2022-11-01T12:32:15.326Z,101168.16
2022-11-01T12:37:21.692Z,101170.97
2022-11-01T12:42:29.461Z,101179.59
2022-11-01T12:47:37.574Z,101175.13
2022-11-01T12:52:45.051Z,101181.97
2022-11-01T12:57:48.807Z,101170.25
2022-11-01T13:03:05.345Z,101177.75
2022-11-01T13:08:14.571Z,101188.72
2022-11-01T13:13:26.079Z,101182.75
2022-11-01T13:18:38.292Z,101176.69
2022-11-01T13:23:45.771Z,101185.56
2022-11-01T13:28:57.678Z,101191.63
2022-11-01T13:34:11.783Z,101177.38
2022-11-01T13:39:24.776Z,101188.16
2022-11-01T13:44:34.425Z,101182.59
2022-11-01T13:49:59.681Z,101193.31
2022-11-01T13:55:15.069Z,101199.84
2022-11-01T14:00:46.344Z,101198.09
2022-11-01T14:11:46.980Z,101210.28
2022-11-01T14:16:50.515Z,101210.75
2022-11-01T14:21:53.526Z,101212.34
2022-11-01T14:27:19.863Z,101217.19
2022-11-01T14:32:25.939Z,101225.59
2022-11-01T14:37:35.983Z,101224.09
2022-11-01T14:42:44.024Z,101223.78
2022-11-01T14:47:48.465Z,101229.00
2022-11-01T14:52:57.469Z,101237.06
2022-11-01T14:58:20.421Z,101237.78
2022-11-01T15:03:24.029Z,101234.00
2022-11-01T15:08:30.493Z,101240.72
2022-11-01T15:13:36.085Z,101249.50
2022-11-01T15:18:44.866Z,101247.38
2022-11-01T15:23:49.086Z,101248.72
2022-11-01T15:28:54.019Z,101262.78
2022-11-01T15:33:59.878Z,101265.25
2022-11-01T15:39:16.001Z,101267.84
2022-11-01T15:44:23.764Z,101271.28
2022-11-01T15:49:30.544Z,101264.66
2022-11-01T15:54:40.081Z,101274.88
2022-11-01T15:59:51.467Z,101269.09
2022-11-01T16:04:56.400Z,101273.94
2022-11-01T16:10:00.684Z,101276.03
2022-11-01T16:15:06.624Z,101287.03
2022-11-01T16:20:30.837Z,101282.88
2022-11-01T16:25:35.763Z,101294.59
2022-11-01T16:30:44.351Z,101301.88
2022-11-01T16:35:49.492Z,101302.97
2022-11-01T16:40:55.219Z,101304.81
2022-11-01T16:45:58.635Z,101309.34
2022-11-01T16:51:03.822Z,101320.91
2022-11-01T16:56:35.092Z,101323.56
2022-11-01T17:01:35.573Z,101313.00
2022-11-01T17:06:39.522Z,101339.69
2022-11-01T17:11:45.029Z,101332.59
2022-11-01T17:16:51.042Z,101347.69
2022-11-01T17:21:55.689Z,101359.28
2022-11-01T17:27:01.434Z,101362.06
2022-11-01T17:32:03.857Z,101380.72
2022-11-01T17:37:07.312Z,101377.19
2022-11-01T17:42:10.513Z,101369.28
2022-11-01T17:47:14.313Z,101377.19
2022-11-01T17:52:17.524Z,101373.59
2022-11-01T17:57:20.094Z,101386.00
2022-11-01T18:02:22.466Z,101388.75
2022-11-01T18:07:35.950Z,101396.75
2022-11-01T18:12:42.959Z,101403.88
2022-11-01T18:17:55.916Z,101395.06
2022-11-01T18:23:05.680Z,101401.28
2022-11-01T18:28:12.650Z,101392.50
2022-11-01T18:33:23.547Z,101404.03
2022-11-01T18:38:32.835Z,101397.91
2022-11-01T18:43:36.276Z,101398.75
2022-11-01T18:48:38.577Z,101392.59
2022-11-01T18:53:42.344Z,101409.41
2022-11-01T18:58:44.645Z,101412.94
2022-11-01T19:03:46.720Z,101420.00
2022-11-01T19:08:52.795Z,101426.16
2022-11-01T19:13:57.603Z,101421.69
2022-11-01T19:19:00.239Z,101420.81
2022-11-01T19:24:16.648Z,101418.13
2022-11-01T19:29:21.825Z,101425.19
2022-11-01T19:34:26.458Z,101434.88
2022-11-01T19:39:32.991Z,101441.00
2022-11-01T19:44:36.691Z,101445.34
2022-11-01T19:49:42.998Z,101440.91
2022-11-01T19:54:50.832Z,101437.31
2022-11-01T19:59:53.946Z,101439.03
2022-11-01T20:05:00.134Z,101445.13
2022-11-01T20:10:06.539Z,101450.28
2022-11-01T20:15:09.921Z,101455.59
2022-11-01T20:20:13.256Z,101454.63
2022-11-01T20:25:17.417Z,101460.81
2022-11-01T20:30:20.083Z,101464.13
2022-11-01T20:35:22.766Z,101469.38
2022-11-01T20:40:27.296Z,101476.38
2022-11-01T20:45:29.939Z,101472.66
2022-11-01T20:50:32.148Z,101479.66
2022-11-01T20:55:36.080Z,101474.31
2022-11-01T21:00:38.722Z,101473.41
2022-11-01T21:05:42.909Z,101475.13
2022-11-01T21:10:46.445Z,101479.50
2022-11-01T21:15:48.840Z,101472.31
2022-11-01T21:20:50.972Z,101476.66
2022-11-01T21:25:56.891Z,101479.25
2022-11-01T21:31:15.357Z,101469.44
2022-11-01T21:36:28.170Z,101458.84
2022-11-01T21:41:40.221Z,101459.66
2022-11-01T21:46:48.251Z,101461.50
2022-11-01T21:51:51.994Z,101472.88
2022-11-01T21:56:56.514Z,101469.09
2022-11-01T22:01:59.999Z,101461.94
2022-11-01T22:07:04.912Z,101457.59
2022-11-01T22:12:08.498Z,101458.44
2022-11-01T22:17:10.477Z,101468.81
2022-11-01T22:22:12.616Z,101474.06
2022-11-01T22:27:16.581Z,101471.38
2022-11-01T22:32:18.648Z,101467.81
2022-11-01T22:37:21.036Z,101469.41
2022-11-01T22:42:25.567Z,101463.25
2022-11-01T22:47:28.571Z,101468.38
2022-11-01T22:52:32.093Z,101463.00
2022-11-01T22:57:42.392Z,101463.00
2022-11-01T23:02:44.456Z,101469.03
2022-11-01T23:07:48.655Z,101465.47
2022-11-01T23:12:58.268Z,101464.56
2022-11-01T23:18:07.247Z,101464.53
2022-11-01T23:23:15.572Z,101465.34
2022-11-01T23:28:19.496Z,101458.22
2022-11-01T23:33:23.002Z,101461.66
2022-11-01T23:38:35.117Z,101468.66
2022-11-01T23:43:40.536Z,101470.19
2022-11-01T23:48:44.457Z,101475.28
2022-11-01T23:53:49.274Z,101474.28
2022-11-01T23:58:56.179Z,101466.13
